Wentworth, New Hampshire
Current Conditions -  °F | °C
As of 7:35 AM on Tuesday 27 Jan 2015 (Local Time) from K1P1 Reporting Station
Light Snow Light Snow  
Wind Chill: -15°   Ceiling: 2900
Heat Index: -9°   Visibility: 4mi
Dew Point: -11°   Wind: 8mph
Humidity: 90%   Direction: 290°WNW
Pressure: 29.75"   Gusts: NA
Location:  43.87°N, 71.91°W
Report Text: K1P1 271235Z AUTO 29007KT 4SM -SN SCT017 BKN029 OVC046 M09/M11 A2975 RMK AO2 T10931106
Loading
Personal Weather Stations






























Interactive Weather Map New forecast layout! Learn more

10-Day Weather Forecast

Advertisements
Track Severe Weather on mobile